createdAt,value
2023-03-02T00:00:16.498Z,12.02
2023-03-02T00:01:19.332Z,12.20
2023-03-02T00:02:22.356Z,12.57
2023-03-02T00:03:25.442Z,12.43
2023-03-02T00:04:32.907Z,12.48
2023-03-02T00:05:35.473Z,12.07
2023-03-02T00:06:38.746Z,13.05
2023-03-02T00:07:40.305Z,13.13
2023-03-02T00:08:44.516Z,12.52
2023-03-02T00:09:46.241Z,12.32
2023-03-02T00:10:48.753Z,12.57
2023-03-02T00:11:51.380Z,13.07
2023-03-02T00:12:54.110Z,13.40
2023-03-02T00:13:55.634Z,12.52
2023-03-02T00:14:58.169Z,13.70
2023-03-02T00:15:59.792Z,12.82
2023-03-02T00:17:03.312Z,13.90
2023-03-02T00:18:05.019Z,13.43
2023-03-02T00:19:07.531Z,11.57
2023-03-02T00:20:10.347Z,12.98
2023-03-02T00:21:12.957Z,13.23
2023-03-02T00:22:14.563Z,12.63
2023-03-02T00:23:17.389Z,12.43
2023-03-02T00:24:20.360Z,11.40
2023-03-02T00:25:22.899Z,12.63
2023-03-02T00:26:24.391Z,13.70
2023-03-02T00:27:29.908Z,12.70
2023-03-02T00:28:31.482Z,13.38
2023-03-02T00:29:33.939Z,13.32
2023-03-02T00:30:35.486Z,12.23
2023-03-02T00:31:38.899Z,13.25
2023-03-02T00:32:40.634Z,12.18
2023-03-02T00:33:43.625Z,12.82
2023-03-02T00:34:45.109Z,11.90
2023-03-02T00:35:47.944Z,12.70
2023-03-02T00:36:49.672Z,13.10
2023-03-02T00:37:52.201Z,12.15
2023-03-02T00:38:53.745Z,12.85
2023-03-02T00:39:57.585Z,12.57
2023-03-02T00:40:59.387Z,11.80
2023-03-02T00:42:03.168Z,12.43
2023-03-02T00:43:04.677Z,12.75
2023-03-02T00:44:07.164Z,12.95
2023-03-02T00:45:09.774Z,12.70
2023-03-02T00:46:13.664Z,13.15
2023-03-02T00:47:15.208Z,12.32
2023-03-02T00:48:17.680Z,12.27
2023-03-02T00:49:19.300Z,12.82
2023-03-02T00:50:21.910Z,12.38
2023-03-02T00:51:23.507Z,12.63
2023-03-02T00:52:26.371Z,12.93
2023-03-02T00:53:27.858Z,13.10
2023-03-02T00:54:30.353Z,13.02
2023-03-02T00:55:33.153Z,12.57
2023-03-02T00:56:35.930Z,12.63
2023-03-02T00:57:37.401Z,12.68
2023-03-02T00:58:40.519Z,13.57
2023-03-02T00:59:42.065Z,13.50
2023-03-02T01:00:44.611Z,13.52
2023-03-02T01:01:57.703Z,13.48
2023-03-02T01:03:00.359Z,12.30
2023-03-02T01:04:01.883Z,12.77
2023-03-02T01:05:04.500Z,13.23
2023-03-02T01:06:13.322Z,12.50
2023-03-02T01:07:17.967Z,11.95
2023-03-02T01:08:19.519Z,13.13
2023-03-02T01:09:21.982Z,12.20
2023-03-02T01:10:23.530Z,13.07
2023-03-02T01:11:27.355Z,12.10
2023-03-02T01:12:28.923Z,11.93
2023-03-02T01:13:31.347Z,11.80
2023-03-02T01:14:32.919Z,13.52
2023-03-02T01:15:35.646Z,12.30
2023-03-02T01:16:37.528Z,12.95
2023-03-02T01:17:41.394Z,12.73
2023-03-02T01:18:43.006Z,12.80
2023-03-02T01:19:45.771Z,12.98
2023-03-02T01:20:47.366Z,13.27
2023-03-02T01:21:49.899Z,12.60
2023-03-02T01:22:51.435Z,11.75
2023-03-02T01:23:53.886Z,11.95
2023-03-02T01:24:55.432Z,12.05
2023-03-02T01:25:57.977Z,12.32
2023-03-02T01:27:00.881Z,12.48
2023-03-02T01:28:03.314Z,12.48
2023-03-02T01:29:04.874Z,12.43
2023-03-02T01:30:08.645Z,12.68
2023-03-02T01:31:10.291Z,12.25
2023-03-02T01:32:12.794Z,12.27
2023-03-02T01:33:14.427Z,12.25
2023-03-02T01:34:17.176Z,13.52
2023-03-02T01:35:18.967Z,13.13
2023-03-02T01:36:22.188Z,13.85
2023-03-02T01:37:23.772Z,12.40
2023-03-02T01:38:26.339Z,12.50
2023-03-02T01:39:27.864Z,11.85
2023-03-02T01:40:30.478Z,12.57
2023-03-02T01:41:32.408Z,12.57
2023-03-02T01:42:39.258Z,12.60
2023-03-02T01:43:40.877Z,12.77
2023-03-02T01:44:45.566Z,12.80
2023-03-02T01:45:51.943Z,11.98
2023-03-02T01:46:54.646Z,12.63
2023-03-02T01:47:56.186Z,12.05
2023-03-02T01:49:01.595Z,12.80
2023-03-02T01:50:06.542Z,11.43
2023-03-02T01:51:15.822Z,11.90
2023-03-02T01:52:18.208Z,12.20
2023-03-02T01:53:21.694Z,12.18
2023-03-02T01:54:23.568Z,12.63
2023-03-02T01:55:30.243Z,12.82
2023-03-02T01:56:36.438Z,12.60
2023-03-02T01:57:45.615Z,13.15
2023-03-02T01:58:51.208Z,12.43
2023-03-02T01:59:59.674Z,11.65
2023-03-02T02:01:01.385Z,12.15
2023-03-02T02:02:07.548Z,13.10
2023-03-02T02:03:14.361Z,12.35
2023-03-02T02:04:17.544Z,12.80
2023-03-02T02:05:25.415Z,12.00
2023-03-02T02:06:33.863Z,12.77
2023-03-02T02:07:36.032Z,12.35
2023-03-02T02:08:39.936Z,13.27
2023-03-02T02:09:44.353Z,11.82
2023-03-02T02:10:46.821Z,13.65
2023-03-02T02:11:48.726Z,12.48
2023-03-02T02:12:52.662Z,12.63
2023-03-02T02:13:57.476Z,11.65
2023-03-02T02:15:01.341Z,11.90
2023-03-02T02:16:03.701Z,11.40
2023-03-02T02:17:06.867Z,12.38
2023-03-02T02:18:08.975Z,11.65
2023-03-02T02:19:19.656Z,11.93
2023-03-02T02:20:28.849Z,10.23
2023-03-02T02:22:55.153Z,11.57
2023-03-02T02:24:10.333Z,12.00
2023-03-02T02:25:22.435Z,12.00
2023-03-02T02:26:28.379Z,11.07
2023-03-02T02:27:34.069Z,12.30
2023-03-02T02:28:40.927Z,11.15
2023-03-02T02:29:47.022Z,10.65
2023-03-02T02:30:52.912Z,10.82
2023-03-02T02:31:57.623Z,11.50
2023-03-02T02:33:01.575Z,11.90
2023-03-02T02:34:10.340Z,12.10
2023-03-02T02:35:17.462Z,12.20
2023-03-02T02:36:22.901Z,11.20
2023-03-02T02:37:32.137Z,12.43
2023-03-02T02:38:34.973Z,11.52
2023-03-02T02:39:42.626Z,12.00
2023-03-02T02:40:48.491Z,11.15
2023-03-02T02:41:56.042Z,11.43
2023-03-02T02:42:57.590Z,10.40
2023-03-02T02:44:00.351Z,11.50
2023-03-02T02:45:04.717Z,11.40
2023-03-02T02:46:07.242Z,10.57
2023-03-02T02:47:16.287Z,11.57
2023-03-02T02:48:24.778Z,11.45
2023-03-02T02:49:30.673Z,11.05
2023-03-02T02:50:38.037Z,11.98
2023-03-02T02:51:39.873Z,11.10
2023-03-02T02:52:42.484Z,11.07
2023-03-02T02:53:49.967Z,11.65
2023-03-02T02:54:55.194Z,10.75
2023-03-02T02:58:40.521Z,11.40
2023-03-02T02:59:47.289Z,10.90
2023-03-02T03:00:56.747Z,11.38
2023-03-02T03:02:00.645Z,11.25
2023-03-02T03:03:08.636Z,11.55
2023-03-02T03:04:15.853Z,11.15
2023-03-02T03:05:18.053Z,10.73
2023-03-02T03:06:25.697Z,10.98
2023-03-02T03:07:27.227Z,11.43
2023-03-02T03:08:53.464Z,10.70
2023-03-02T03:10:02.196Z,10.93
2023-03-02T03:11:06.962Z,10.07
2023-03-02T03:12:15.284Z,10.73
2023-03-02T03:13:18.505Z,10.80
2023-03-02T03:14:23.551Z,10.45
2023-03-02T03:16:59.092Z,11.23
2023-03-02T03:18:04.152Z,9.32
2023-03-02T03:19:12.760Z,10.52
2023-03-02T03:20:16.706Z,11.07
2023-03-02T03:21:19.346Z,10.30
2023-03-02T03:22:21.021Z,10.65
2023-03-02T03:23:23.546Z,10.35
2023-03-02T03:24:26.258Z,10.50
2023-03-02T03:25:29.825Z,10.32
2023-03-02T03:26:31.789Z,10.63
2023-03-02T03:27:34.380Z,11.23
2023-03-02T03:28:37.249Z,10.50
2023-03-02T03:29:41.941Z,10.27
2023-03-02T03:30:43.922Z,10.13
2023-03-02T03:31:46.603Z,10.02
2023-03-02T03:32:48.153Z,11.00
2023-03-02T03:33:50.817Z,10.77
2023-03-02T03:34:53.279Z,9.98
2023-03-02T03:35:55.025Z,10.20
2023-03-02T03:37:01.675Z,10.73
2023-03-02T03:38:03.801Z,10.82
2023-03-02T03:39:07.141Z,10.93
2023-03-02T03:40:10.507Z,10.70
2023-03-02T03:41:12.992Z,10.98
2023-03-02T03:42:15.349Z,10.75
2023-03-02T03:43:17.879Z,10.77
2023-03-02T03:44:21.173Z,10.85
2023-03-02T03:45:23.994Z,11.15
2023-03-02T03:46:25.684Z,10.90
2023-03-02T03:47:28.181Z,10.05
2023-03-02T03:48:29.670Z,11.07
2023-03-02T03:49:32.221Z,11.10
2023-03-02T03:50:34.052Z,11.52
2023-03-02T03:51:36.563Z,10.73
2023-03-02T03:52:38.063Z,11.15
2023-03-02T03:53:40.759Z,11.90
2023-03-02T03:54:42.238Z,11.00
2023-03-02T03:55:44.696Z,11.18
2023-03-02T03:56:48.375Z,11.27
2023-03-02T03:57:50.902Z,10.70
2023-03-02T03:59:06.408Z,11.65
2023-03-02T04:00:14.988Z,10.88
2023-03-02T04:01:16.535Z,11.02
2023-03-02T04:02:19.134Z,11.50
2023-03-02T04:03:21.233Z,11.07
2023-03-02T04:04:27.056Z,11.43
2023-03-02T04:05:31.451Z,10.40
2023-03-02T04:06:34.504Z,11.15
2023-03-02T04:07:37.586Z,11.27
2023-03-02T04:08:40.021Z,11.50
2023-03-02T04:09:42.023Z,10.63
2023-03-02T04:10:44.780Z,12.07
2023-03-02T04:11:48.733Z,10.60
2023-03-02T04:12:51.275Z,11.15
2023-03-02T04:13:52.771Z,12.15
2023-03-02T04:14:55.214Z,11.32
2023-03-02T04:15:58.105Z,12.00
2023-03-02T04:17:00.609Z,11.82
2023-03-02T04:18:02.804Z,11.50
2023-03-02T04:19:09.485Z,10.48
2023-03-02T04:20:16.020Z,11.13
2023-03-02T04:21:18.716Z,11.85
2023-03-02T04:22:20.583Z,11.18
2023-03-02T04:23:23.047Z,10.40
2023-03-02T04:24:25.031Z,10.77
2023-03-02T04:25:30.284Z,10.63
2023-03-02T04:26:38.492Z,10.90
2023-03-02T04:27:41.246Z,11.40
2023-03-02T04:28:42.996Z,10.88
2023-03-02T04:29:46.273Z,11.07
2023-03-02T04:30:47.859Z,11.18
2023-03-02T04:31:52.155Z,10.90
2023-03-02T04:32:54.853Z,11.32
2023-03-02T04:33:57.372Z,11.23
2023-03-02T04:34:59.404Z,11.32
2023-03-02T04:36:02.328Z,11.13
2023-03-02T04:37:04.161Z,11.48
2023-03-02T04:38:06.893Z,11.48
2023-03-02T04:39:09.040Z,10.82
2023-03-02T04:40:14.031Z,10.05
2023-03-02T04:41:16.153Z,10.98
2023-03-02T04:42:18.813Z,10.20
2023-03-02T04:43:20.386Z,10.10
2023-03-02T04:44:23.102Z,10.50
2023-03-02T04:45:24.633Z,10.48
2023-03-02T04:46:28.944Z,11.18
2023-03-02T04:47:32.026Z,10.10
2023-03-02T04:48:34.572Z,10.68
2023-03-02T04:49:36.348Z,11.50
2023-03-02T04:50:38.826Z,11.57
2023-03-02T04:51:42.386Z,11.07
2023-03-02T04:52:44.865Z,10.90
2023-03-02T04:53:46.409Z,11.02
2023-03-02T04:54:49.047Z,10.35
2023-03-02T04:55:50.631Z,11.18
2023-03-02T04:56:53.902Z,10.18
2023-03-02T04:57:55.461Z,11.05
2023-03-02T04:58:58.127Z,10.95
2023-03-02T04:59:59.631Z,11.50
2023-03-02T05:01:02.352Z,11.23
2023-03-02T05:02:04.016Z,10.90
2023-03-02T05:03:08.473Z,10.40
2023-03-02T05:04:10.298Z,10.55
2023-03-02T05:05:17.237Z,10.82
2023-03-02T05:06:19.203Z,10.95
2023-03-02T05:07:21.677Z,11.13
2023-03-02T05:08:24.248Z,10.65
2023-03-02T05:09:30.277Z,11.20
2023-03-02T05:10:31.932Z,10.82
2023-03-02T05:11:35.023Z,10.80
2023-03-02T05:12:54.839Z,11.38
2023-03-02T05:14:00.554Z,10.65
2023-03-02T05:15:02.073Z,10.52
2023-03-02T05:16:05.357Z,10.50
2023-03-02T05:17:07.041Z,11.07
2023-03-02T05:18:12.692Z,10.65
2023-03-02T05:19:14.252Z,10.93
2023-03-02T05:20:17.344Z,11.68
2023-03-02T05:21:19.364Z,11.45
2023-03-02T05:22:21.958Z,12.13
2023-03-02T05:23:27.551Z,11.57
2023-03-02T05:24:30.509Z,12.98
2023-03-02T05:25:35.698Z,11.02
2023-03-02T05:26:39.153Z,11.40
2023-03-02T05:27:40.966Z,11.60
2023-03-02T05:28:44.154Z,11.15
2023-03-02T05:29:45.741Z,10.45
2023-03-02T05:30:48.658Z,11.05
2023-03-02T05:31:50.640Z,10.88
2023-03-02T05:32:53.781Z,11.40
2023-03-02T05:33:56.976Z,10.98
2023-03-02T05:34:59.507Z,12.15
2023-03-02T05:36:01.366Z,11.60
2023-03-02T05:37:03.921Z,10.20
2023-03-02T05:38:05.573Z,11.73
2023-03-02T05:39:09.388Z,11.68
2023-03-02T05:40:13.197Z,10.52
2023-03-02T05:41:16.924Z,11.60
2023-03-02T05:42:19.339Z,11.98
2023-03-02T05:43:22.782Z,11.65
2023-03-02T05:44:25.259Z,11.60
2023-03-02T05:45:29.480Z,10.85
2023-03-02T05:46:32.372Z,10.38
2023-03-02T05:47:34.125Z,10.40
2023-03-02T05:48:37.117Z,11.10
2023-03-02T05:49:39.963Z,10.88
2023-03-02T05:50:43.008Z,10.65
2023-03-02T05:51:44.529Z,11.32
2023-03-02T05:52:47.555Z,10.10
2023-03-02T05:53:49.398Z,11.27
2023-03-02T05:54:51.853Z,11.38
2023-03-02T05:55:54.286Z,10.40
2023-03-02T05:56:56.756Z,9.95
2023-03-02T05:57:58.264Z,11.20
2023-03-02T05:59:01.012Z,11.02
2023-03-02T06:00:02.842Z,11.27
2023-03-02T06:01:13.166Z,11.38
2023-03-02T06:02:16.816Z,11.45
2023-03-02T06:03:19.781Z,11.27
2023-03-02T06:04:21.558Z,10.73
2023-03-02T06:05:29.149Z,10.63
2023-03-02T06:06:33.559Z,10.23
2023-03-02T06:07:37.073Z,11.57
2023-03-02T06:08:41.285Z,10.77
2023-03-02T06:09:43.820Z,11.13
2023-03-02T06:10:45.834Z,11.15
2023-03-02T06:11:48.349Z,11.25
2023-03-02T06:12:50.278Z,11.50
2023-03-02T06:13:53.060Z,12.07
2023-03-02T06:14:54.961Z,12.30
2023-03-02T06:15:57.976Z,11.35
2023-03-02T06:16:59.596Z,12.00
2023-03-02T06:18:02.279Z,13.48
2023-03-02T06:19:03.759Z,11.23
2023-03-02T06:20:10.946Z,11.52
2023-03-02T06:21:15.282Z,12.57
2023-03-02T06:22:17.071Z,12.95
2023-03-02T06:23:21.225Z,12.75
2023-03-02T06:24:22.717Z,12.15
2023-03-02T06:25:26.150Z,11.70
2023-03-02T06:26:27.676Z,11.57
2023-03-02T06:27:30.220Z,12.40
2023-03-02T06:28:37.749Z,11.57
2023-03-02T06:29:44.618Z,12.98
2023-03-02T06:30:49.643Z,13.02
2023-03-02T06:31:52.370Z,14.40
2023-03-02T06:32:55.401Z,12.98
2023-03-02T06:33:56.971Z,13.52
2023-03-02T06:34:59.634Z,14.38
2023-03-02T06:36:02.367Z,12.82
2023-03-02T06:37:05.274Z,14.20
2023-03-02T06:38:07.767Z,13.43
2023-03-02T06:39:15.796Z,13.85
2023-03-02T06:40:33.003Z,13.50
2023-03-02T06:41:39.404Z,13.32
2023-03-02T06:42:50.396Z,14.18
2023-03-02T06:43:53.146Z,13.43
2023-03-02T06:44:55.137Z,13.40
2023-03-02T06:45:58.160Z,13.32
2023-03-02T06:46:59.751Z,13.30
2023-03-02T06:48:02.345Z,12.85
2023-03-02T06:49:04.352Z,13.15
2023-03-02T06:50:07.704Z,11.98
2023-03-02T06:51:09.527Z,11.32
2023-03-02T06:52:14.298Z,11.25
2023-03-02T06:53:18.547Z,11.77
2023-03-02T06:54:23.111Z,11.00
2023-03-02T06:55:25.879Z,11.38
2023-03-02T06:56:28.663Z,11.27
2023-03-02T06:57:34.156Z,11.25
2023-03-02T06:58:37.619Z,10.60
2023-03-02T06:59:39.245Z,10.60
2023-03-02T07:00:41.934Z,10.57
2023-03-02T07:01:43.499Z,9.50
2023-03-02T07:02:46.554Z,10.02
2023-03-02T07:03:48.189Z,10.15
2023-03-02T07:04:51.078Z,10.88
2023-03-02T07:05:52.637Z,10.02
2023-03-02T07:06:55.201Z,9.70
2023-03-02T07:07:58.047Z,9.48
2023-03-02T07:09:00.726Z,10.02
2023-03-02T07:10:02.484Z,9.57
2023-03-02T07:11:08.567Z,10.00
2023-03-02T07:12:10.135Z,9.45
2023-03-02T07:13:12.610Z,9.40
2023-03-02T07:14:14.173Z,9.18
2023-03-02T07:15:25.725Z,8.98
2023-03-02T07:16:28.841Z,9.30
2023-03-02T07:17:30.482Z,9.40
2023-03-02T07:18:33.009Z,9.23
2023-03-02T07:19:34.601Z,9.10
2023-03-02T07:20:38.206Z,9.43
2023-03-02T07:21:40.021Z,8.95
2023-03-02T07:22:43.194Z,9.45
2023-03-02T07:23:46.093Z,9.60
2023-03-02T07:24:48.596Z,8.98
2023-03-02T07:25:50.069Z,10.23
2023-03-02T07:26:52.561Z,9.48
2023-03-02T07:27:55.797Z,9.02
2023-03-02T07:28:59.475Z,9.40
2023-03-02T07:30:01.236Z,9.50
2023-03-02T07:31:03.867Z,9.15
2023-03-02T07:32:06.827Z,9.30
2023-03-02T07:33:09.530Z,8.90
2023-03-02T07:34:11.057Z,9.30
2023-03-02T07:35:13.728Z,8.93
2023-03-02T07:36:15.237Z,9.75
2023-03-02T07:37:17.757Z,9.15
2023-03-02T07:38:19.301Z,10.38
2023-03-02T07:39:23.181Z,9.95
2023-03-02T07:40:24.734Z,10.27
2023-03-02T07:41:27.167Z,9.93
2023-03-02T07:42:28.720Z,9.85
2023-03-02T07:43:31.150Z,9.27
2023-03-02T07:44:32.710Z,9.98
2023-03-02T07:45:35.228Z,9.98
2023-03-02T07:46:38.030Z,10.38
2023-03-02T07:47:39.757Z,10.35
2023-03-02T07:48:42.270Z,10.20
2023-03-02T07:49:43.837Z,9.73
2023-03-02T07:50:46.351Z,10.27
2023-03-02T07:51:48.077Z,9.88
2023-03-02T07:52:50.537Z,10.25
2023-03-02T07:53:52.049Z,10.27
2023-03-02T07:54:55.900Z,10.98
2023-03-02T07:55:57.502Z,10.95
2023-03-02T07:57:00.994Z,10.60
2023-03-02T07:58:03.470Z,10.80
2023-03-02T07:59:05.946Z,10.15
2023-03-02T08:00:09.736Z,10.65
2023-03-02T08:01:11.489Z,11.02
2023-03-02T08:02:16.745Z,12.05
2023-03-02T08:03:18.521Z,10.85
2023-03-02T08:04:21.162Z,10.90
2023-03-02T08:05:23.629Z,11.43
2023-03-02T08:06:25.333Z,10.80
2023-03-02T08:07:27.807Z,10.80
2023-03-02T08:08:29.337Z,10.82
2023-03-02T08:09:31.977Z,11.63
2023-03-02T08:10:35.603Z,11.60
2023-03-02T08:11:38.131Z,11.48
2023-03-02T08:12:40.058Z,11.73
2023-03-02T08:13:43.553Z,12.45
2023-03-02T08:14:46.986Z,11.65
2023-03-02T08:15:51.671Z,11.25
2023-03-02T08:16:54.168Z,12.60
2023-03-02T08:17:55.805Z,11.95
2023-03-02T08:18:59.945Z,12.20
2023-03-02T08:20:03.979Z,12.57
2023-03-02T08:21:12.717Z,12.68
2023-03-02T08:22:14.585Z,12.05
2023-03-02T08:23:17.050Z,11.88
2023-03-02T08:24:19.660Z,12.15
2023-03-02T08:25:21.173Z,11.98
2023-03-02T08:26:25.237Z,12.48
2023-03-02T08:27:26.828Z,13.20
2023-03-02T08:28:29.340Z,12.40
2023-03-02T08:29:32.003Z,13.45
2023-03-02T08:30:33.524Z,13.80
2023-03-02T08:31:36.295Z,13.52
2023-03-02T08:32:38.510Z,13.57
2023-03-02T08:33:41.220Z,12.68
2023-03-02T08:34:43.108Z,12.10
2023-03-02T08:35:46.102Z,12.30
2023-03-02T08:36:48.798Z,12.73
2023-03-02T08:37:50.326Z,13.23
2023-03-02T08:38:53.433Z,12.73
2023-03-02T08:39:54.984Z,13.52
2023-03-02T08:40:57.847Z,13.00
2023-03-02T08:42:01.941Z,13.43
2023-03-02T08:43:03.790Z,13.10
2023-03-02T08:44:07.486Z,13.27
2023-03-02T08:45:10.068Z,13.68
2023-03-02T08:46:14.184Z,12.90
2023-03-02T08:47:16.303Z,12.75
2023-03-02T08:48:20.639Z,12.35
2023-03-02T08:49:24.015Z,13.32
2023-03-02T08:51:45.700Z,13.10
2023-03-02T08:52:48.433Z,13.88
2023-03-02T08:53:55.505Z,12.85
2023-03-02T08:54:58.183Z,12.80
2023-03-02T08:55:59.710Z,12.95
2023-03-02T08:57:03.694Z,12.65
2023-03-02T08:58:05.211Z,12.77
2023-03-02T08:59:12.427Z,13.80
2023-03-02T09:00:16.371Z,13.93
2023-03-02T09:01:21.051Z,12.88
2023-03-02T09:02:22.626Z,12.30
2023-03-02T09:03:25.091Z,13.50
2023-03-02T09:04:26.778Z,12.95
2023-03-02T09:05:29.291Z,12.95
2023-03-02T09:06:34.274Z,13.65
2023-03-02T09:07:36.815Z,14.52
2023-03-02T09:08:38.937Z,13.50
2023-03-02T09:09:41.487Z,13.65
2023-03-02T09:10:43.074Z,13.70
2023-03-02T09:11:46.411Z,13.23
2023-03-02T09:12:49.260Z,14.48
2023-03-02T09:13:51.914Z,13.05
2023-03-02T09:14:53.375Z,14.13
2023-03-02T09:15:55.890Z,14.45
2023-03-02T09:16:58.562Z,13.93
2023-03-02T09:18:00.145Z,13.05
2023-03-02T09:19:02.675Z,14.48
2023-03-02T09:20:05.122Z,15.00
2023-03-02T09:21:07.844Z,14.48
2023-03-02T09:22:10.451Z,13.43
2023-03-02T09:23:13.585Z,13.75
2023-03-02T09:24:16.120Z,15.07
2023-03-02T09:25:18.703Z,15.55
2023-03-02T09:26:21.324Z,15.18
2023-03-02T09:27:23.876Z,15.05
2023-03-02T09:28:28.036Z,14.93
2023-03-02T09:29:33.015Z,16.25
2023-03-02T09:30:34.603Z,15.50
2023-03-02T09:31:38.125Z,16.75
2023-03-02T09:32:41.302Z,15.57
2023-03-02T09:33:42.948Z,15.82
2023-03-02T09:34:45.410Z,16.23
2023-03-02T09:35:47.708Z,15.55
2023-03-02T09:36:50.237Z,16.52
2023-03-02T09:37:51.802Z,15.93
2023-03-02T09:38:54.983Z,16.13
2023-03-02T09:39:56.729Z,15.63
2023-03-02T09:41:18.325Z,14.52
2023-03-02T09:42:44.511Z,15.07
2023-03-02T09:43:55.786Z,14.30
2023-03-02T09:45:08.912Z,15.55
2023-03-02T09:46:18.854Z,15.07
2023-03-02T09:47:35.424Z,11.75
2023-03-02T09:48:44.445Z,15.63
2023-03-02T09:49:59.053Z,15.52
2023-03-02T09:51:16.815Z,16.15
2023-03-02T09:52:31.200Z,16.02
2023-03-02T09:53:44.894Z,15.88
2023-03-02T09:54:47.536Z,16.30
2023-03-02T09:55:53.918Z,15.90
2023-03-02T09:56:58.675Z,15.65
2023-03-02T09:58:02.457Z,15.40
2023-03-02T09:59:13.765Z,16.23
2023-03-02T10:00:24.685Z,14.55
2023-03-02T10:01:36.997Z,15.40
2023-03-02T10:02:46.666Z,15.98
2023-03-02T10:03:56.294Z,16.77
2023-03-02T10:05:02.124Z,16.00
2023-03-02T10:06:04.995Z,15.93
2023-03-02T10:07:12.879Z,15.95
2023-03-02T10:08:18.102Z,15.80
2023-03-02T10:09:20.631Z,15.32
2023-03-02T10:10:27.415Z,16.38
2023-03-02T10:11:37.220Z,15.63
2023-03-02T10:12:54.713Z,16.67
2023-03-02T10:14:03.311Z,15.70
2023-03-02T10:15:13.515Z,16.33
2023-03-02T10:16:25.394Z,11.45
2023-03-02T10:17:41.053Z,16.05
2023-03-02T10:18:47.770Z,15.90
2023-03-02T10:19:57.536Z,15.93
2023-03-02T10:21:05.220Z,16.23
2023-03-02T10:22:16.357Z,16.83
2023-03-02T10:23:40.033Z,16.48
2023-03-02T10:24:52.150Z,16.17
2023-03-02T10:26:02.178Z,16.98
2023-03-02T10:27:17.898Z,16.52
2023-03-02T10:28:22.083Z,15.75
2023-03-02T10:29:41.666Z,16.00
2023-03-02T10:30:49.968Z,15.07
2023-03-02T10:31:59.865Z,15.73
2023-03-02T10:33:05.636Z,12.07
2023-03-02T10:34:11.444Z,15.57
2023-03-02T10:35:17.542Z,16.15
2023-03-02T10:36:23.478Z,14.90
2023-03-02T10:37:30.518Z,15.77
2023-03-02T10:38:33.367Z,16.13
2023-03-02T10:39:35.958Z,15.23
2023-03-02T10:40:44.211Z,15.43
2023-03-02T10:41:51.506Z,15.80
2023-03-02T10:42:54.566Z,15.82
2023-03-02T10:44:02.114Z,15.63
2023-03-02T10:45:16.235Z,14.82
2023-03-02T10:46:21.151Z,15.75
2023-03-02T10:47:26.258Z,16.40
2023-03-02T10:48:28.246Z,15.70
2023-03-02T10:49:32.454Z,14.65
2023-03-02T10:50:34.111Z,14.77
2023-03-02T10:51:37.689Z,14.52
2023-03-02T10:52:59.798Z,15.05
2023-03-02T10:54:10.231Z,15.60
2023-03-02T10:55:15.756Z,14.68
2023-03-02T10:56:20.389Z,15.30
2023-03-02T10:57:35.414Z,14.77
2023-03-02T10:58:37.932Z,14.85
2023-03-02T10:59:43.823Z,15.25
2023-03-02T11:00:57.454Z,13.25
2023-03-02T11:02:01.038Z,13.45
2023-03-02T11:03:06.636Z,15.20
2023-03-02T11:04:15.684Z,14.43
2023-03-02T11:05:29.165Z,14.93
2023-03-02T11:06:31.142Z,14.80
2023-03-02T11:07:33.826Z,14.55
2023-03-02T11:08:36.955Z,14.60
2023-03-02T11:09:38.969Z,14.13
2023-03-02T11:10:51.419Z,14.50
2023-03-02T11:11:56.661Z,14.07
2023-03-02T11:13:00.704Z,14.40
2023-03-02T11:14:10.285Z,13.68
2023-03-02T11:15:21.701Z,14.35
2023-03-02T11:16:28.754Z,13.60
2023-03-02T11:17:34.325Z,13.63
2023-03-02T11:18:39.642Z,14.05
2023-03-02T11:19:42.576Z,13.27
2023-03-02T11:20:49.369Z,13.98
2023-03-02T11:21:58.934Z,14.35
2023-03-02T11:23:17.873Z,13.50
2023-03-02T11:24:25.142Z,13.57
2023-03-02T11:25:32.534Z,13.52
2023-03-02T11:26:38.580Z,14.02
2023-03-02T11:27:44.579Z,12.65
2023-03-02T11:28:52.750Z,13.15
2023-03-02T11:29:58.527Z,13.57
2023-03-02T11:31:04.037Z,13.25
2023-03-02T11:32:19.294Z,13.00
2023-03-02T11:33:29.727Z,11.35
2023-03-02T11:34:36.221Z,12.90
2023-03-02T11:35:45.993Z,12.60
2023-03-02T11:36:59.337Z,12.70
2023-03-02T11:38:11.526Z,13.13
2023-03-02T11:39:21.754Z,12.82
2023-03-02T11:40:28.751Z,13.57
2023-03-02T11:41:32.967Z,12.95
2023-03-02T11:42:38.318Z,12.57
2023-03-02T11:43:39.955Z,14.43
2023-03-02T11:44:43.121Z,13.45
2023-03-02T11:45:47.379Z,13.77
2023-03-02T11:46:56.764Z,13.48
2023-03-02T11:48:03.960Z,12.75
2023-03-02T11:49:15.870Z,13.20
2023-03-02T11:50:20.663Z,13.70
2023-03-02T11:51:26.444Z,14.05
2023-03-02T11:52:32.966Z,13.48
2023-03-02T11:53:43.544Z,14.05
2023-03-02T11:54:53.787Z,14.73
2023-03-02T11:55:56.576Z,13.88
2023-03-02T11:56:58.957Z,13.88
2023-03-02T11:58:04.349Z,13.63
2023-03-02T11:59:16.704Z,13.68
2023-03-02T12:00:28.851Z,13.20
2023-03-02T12:01:34.191Z,13.65
2023-03-02T12:02:37.436Z,13.85
2023-03-02T12:04:27.161Z,13.75
2023-03-02T12:05:36.116Z,13.55
2023-03-02T12:06:41.214Z,13.75
2023-03-02T12:07:44.582Z,14.85
2023-03-02T12:08:48.980Z,13.90
2023-03-02T12:09:59.617Z,13.73
2023-03-02T12:11:04.979Z,14.60
2023-03-02T12:12:41.238Z,14.57
2023-03-02T12:13:45.370Z,13.80
2023-03-02T12:14:47.182Z,13.38
2023-03-02T12:15:51.322Z,13.15
2023-03-02T12:17:05.226Z,13.25
2023-03-02T12:18:29.741Z,13.48
2023-03-02T12:19:42.017Z,13.45
2023-03-02T12:20:45.846Z,13.70
2023-03-02T12:21:57.964Z,13.43
2023-03-02T12:23:21.195Z,12.55
2023-03-02T12:24:26.997Z,12.93
2023-03-02T12:25:39.731Z,14.20
2023-03-02T12:26:42.307Z,13.32
2023-03-02T12:27:43.934Z,14.30
2023-03-02T12:28:59.590Z,13.48
2023-03-02T12:30:24.555Z,13.15
2023-03-02T12:31:27.820Z,13.32
2023-03-02T12:32:31.716Z,13.38
2023-03-02T12:33:42.491Z,13.52
2023-03-02T12:35:52.990Z,13.15
2023-03-02T12:36:59.597Z,12.05
2023-03-02T12:38:06.375Z,13.10
2023-03-02T12:39:23.206Z,13.10
2023-03-02T12:40:33.560Z,12.85
2023-03-02T12:41:54.559Z,12.98
2023-03-02T12:43:24.533Z,12.15
2023-03-02T12:44:44.042Z,11.65
2023-03-02T12:46:25.039Z,12.05
2023-03-02T12:47:30.673Z,12.18
2023-03-02T12:48:42.181Z,12.68
2023-03-02T12:49:54.530Z,12.60
2023-03-02T12:51:00.629Z,13.15
2023-03-02T12:52:05.246Z,12.35
2023-03-02T12:53:16.874Z,11.48
2023-03-02T12:54:21.560Z,11.95
2023-03-02T12:55:24.808Z,12.63
2023-03-02T12:56:27.528Z,12.25
2023-03-02T12:57:29.682Z,11.95
2023-03-02T12:58:33.705Z,11.80
2023-03-02T12:59:37.245Z,11.65
2023-03-02T13:00:39.717Z,12.20
2023-03-02T13:01:41.247Z,12.25
2023-03-02T13:02:49.113Z,10.80
2023-03-02T13:03:52.113Z,10.57
2023-03-02T13:04:57.437Z,11.38
2023-03-02T13:06:12.198Z,11.85
2023-03-02T13:07:19.166Z,11.20
2023-03-02T13:08:25.387Z,11.23
2023-03-02T13:09:27.479Z,10.95
2023-03-02T13:10:36.060Z,10.68
2023-03-02T13:11:38.687Z,11.23
2023-03-02T13:12:46.656Z,11.60
2023-03-02T13:13:48.662Z,11.20
2023-03-02T13:14:56.094Z,11.25
2023-03-02T13:16:00.519Z,10.98
2023-03-02T13:17:03.225Z,10.82
2023-03-02T13:18:05.946Z,10.77
2023-03-02T13:19:16.550Z,11.15
2023-03-02T13:20:21.361Z,11.70
2023-03-02T13:21:31.427Z,10.35
2023-03-02T13:22:34.152Z,10.07
2023-03-02T13:23:35.797Z,11.27
2023-03-02T13:24:46.908Z,10.63
2023-03-02T13:25:50.458Z,10.52
2023-03-02T13:26:56.453Z,10.85
2023-03-02T13:28:04.744Z,11.18
2023-03-02T13:29:19.198Z,10.07
2023-03-02T13:30:27.978Z,10.10
2023-03-02T13:31:30.397Z,10.38
2023-03-02T13:32:38.838Z,9.68
2023-03-02T13:33:45.027Z,10.38
2023-03-02T13:34:50.087Z,10.55
2023-03-02T13:35:52.950Z,9.98
2023-03-02T13:36:56.023Z,9.60
2023-03-02T13:38:03.232Z,9.98
2023-03-02T13:39:09.196Z,10.70
2023-03-02T13:40:39.696Z,9.63
2023-03-02T13:41:54.286Z,9.40
2023-03-02T13:42:56.246Z,10.40
2023-03-02T13:43:59.928Z,9.88
2023-03-02T13:45:14.891Z,10.40
2023-03-02T13:46:36.657Z,9.85
2023-03-02T13:47:43.673Z,10.18
2023-03-02T13:49:07.544Z,10.07
2023-03-02T13:50:19.345Z,9.65
2023-03-02T13:51:24.087Z,9.38
2023-03-02T13:52:30.640Z,9.15
2023-03-02T13:53:37.906Z,8.88
2023-03-02T13:54:42.494Z,8.82
2023-03-02T13:55:45.061Z,9.68
2023-03-02T13:56:47.684Z,8.73
2023-03-02T13:57:51.968Z,9.02
2023-03-02T13:58:53.842Z,8.70
2023-03-02T13:59:56.954Z,8.27
2023-03-02T14:00:58.574Z,8.75
2023-03-02T14:02:01.238Z,9.10
2023-03-02T14:03:02.818Z,8.93
2023-03-02T14:04:05.292Z,9.15
2023-03-02T14:05:09.919Z,7.95
2023-03-02T14:06:12.415Z,8.25